createdAt,value
2023-02-09T00:01:29.041Z,0.72
2023-02-09T00:03:57.233Z,0.64
2023-02-09T00:06:26.349Z,0.70
2023-02-09T00:08:53.497Z,0.64
2023-02-09T00:11:46.946Z,0.66
2023-02-09T00:14:16.604Z,0.65
2023-02-09T00:16:43.940Z,0.61
2023-02-09T00:19:12.648Z,0.49
2023-02-09T00:21:40.759Z,0.51
2023-02-09T00:24:10.687Z,0.50
2023-02-09T00:26:38.995Z,0.47
2023-02-09T00:29:07.357Z,0.42
2023-02-09T00:31:35.276Z,0.38
2023-02-09T00:34:02.803Z,0.44
2023-02-09T00:36:30.437Z,0.40
2023-02-09T00:38:57.491Z,0.35
2023-02-09T00:41:43.085Z,0.37
2023-02-09T00:44:11.998Z,0.25
2023-02-09T00:46:39.116Z,0.28
2023-02-09T00:49:06.354Z,0.15
2023-02-09T00:51:33.618Z,0.10
2023-02-09T00:54:02.878Z,0.06
2023-02-09T00:56:29.878Z,0.05
2023-02-09T00:58:56.878Z,-0.03
2023-02-09T01:01:25.222Z,0.00
2023-02-09T01:03:53.152Z,-0.06
2023-02-09T01:06:21.052Z,-0.08
2023-02-09T01:08:47.996Z,-0.19
2023-02-09T01:11:18.135Z,-0.24
2023-02-09T01:13:46.102Z,-0.20
2023-02-09T01:16:16.892Z,-0.29
2023-02-09T01:18:45.003Z,-0.26
2023-02-09T01:21:19.794Z,-0.28
2023-02-09T01:23:48.009Z,-0.32
2023-02-09T01:26:18.507Z,-0.39
2023-02-09T01:28:50.931Z,-0.39
2023-02-09T01:31:26.337Z,-0.42
2023-02-09T01:33:55.807Z,-0.46
2023-02-09T01:36:22.957Z,-0.47
2023-02-09T01:38:50.331Z,-0.46
2023-02-09T01:41:17.740Z,-0.58
2023-02-09T01:44:07.493Z,-0.55
2023-02-09T01:46:36.890Z,-0.58
2023-02-09T01:49:12.676Z,-0.63
2023-02-09T01:52:04.775Z,-0.63
2023-02-09T01:54:37.895Z,-0.69
2023-02-09T01:57:12.603Z,-0.70
2023-02-09T01:59:43.754Z,-0.73
2023-02-09T02:02:11.581Z,-0.73
2023-02-09T02:04:41.421Z,-0.74
2023-02-09T02:07:40.005Z,-0.69
2023-02-09T02:10:07.963Z,-0.68
2023-02-09T02:12:36.146Z,-0.73
2023-02-09T02:15:03.575Z,-0.68
2023-02-09T02:17:56.677Z,-0.63
2023-02-09T02:20:58.430Z,-0.58
2023-02-09T02:23:56.316Z,-0.57
2023-02-09T02:26:56.974Z,-0.54
2023-02-09T02:30:03.192Z,-0.52
2023-02-09T02:33:18.501Z,-0.56
2023-02-09T02:36:03.343Z,-0.59
2023-02-09T02:38:54.330Z,-0.74
2023-02-09T02:42:08.076Z,-0.69
2023-02-09T02:44:40.259Z,-0.78
2023-02-09T02:47:12.697Z,-0.77
2023-02-09T02:49:42.945Z,-0.81
2023-02-09T02:52:11.108Z,-0.83
2023-02-09T02:54:50.451Z,-0.92
2023-02-09T02:57:22.022Z,-0.92
2023-02-09T02:59:55.870Z,-0.99
2023-02-09T03:02:33.941Z,-1.06
2023-02-09T03:05:03.433Z,-1.10
2023-02-09T03:07:30.434Z,-1.16
2023-02-09T03:09:57.548Z,-1.18
2023-02-09T03:12:55.636Z,-1.18
2023-02-09T03:16:10.627Z,-1.17
2023-02-09T03:19:46.792Z,-1.08
2023-02-09T03:22:26.346Z,-1.03
2023-02-09T03:25:18.056Z,-1.01
2023-02-09T03:28:07.496Z,-1.01
2023-02-09T03:30:35.924Z,-1.03
2023-02-09T03:33:05.182Z,-1.01
2023-02-09T03:35:39.733Z,-1.08
2023-02-09T03:38:07.190Z,-1.07
2023-02-09T03:40:34.792Z,-1.19
2023-02-09T03:43:01.688Z,-1.22
2023-02-09T03:45:28.684Z,-1.22
2023-02-09T03:47:55.594Z,-1.24
2023-02-09T03:50:22.618Z,-1.19
2023-02-09T03:52:50.675Z,-1.19
2023-02-09T03:55:17.789Z,-1.15
2023-02-09T03:57:44.769Z,-1.21
2023-02-09T04:00:12.763Z,-1.18
2023-02-09T04:02:41.746Z,-1.23
2023-02-09T04:05:09.821Z,-1.21
2023-02-09T04:07:37.561Z,-1.17
2023-02-09T04:10:05.138Z,-1.13
2023-02-09T04:12:32.215Z,-1.16
2023-02-09T04:14:59.159Z,-1.08
2023-02-09T04:17:26.116Z,-0.96
2023-02-09T04:19:53.208Z,-0.90
2023-02-09T04:22:20.107Z,-0.84
2023-02-09T04:24:47.056Z,-0.84
2023-02-09T04:27:14.002Z,-0.80
2023-02-09T04:29:40.966Z,-0.73
2023-02-09T04:32:08.011Z,-0.71
2023-02-09T04:34:35.023Z,-0.69
2023-02-09T04:37:01.887Z,-0.69
2023-02-09T04:39:28.971Z,-0.63
2023-02-09T04:41:55.899Z,-0.63
2023-02-09T04:44:22.889Z,-0.65
2023-02-09T04:46:49.853Z,-0.65
2023-02-09T04:49:16.789Z,-0.60
2023-02-09T04:51:43.815Z,-0.53
2023-02-09T04:54:10.795Z,-0.53
2023-02-09T04:56:38.819Z,-0.58
2023-02-09T04:59:24.402Z,-0.56
2023-02-09T05:01:52.114Z,-0.54
2023-02-09T05:04:19.142Z,-0.56
2023-02-09T05:06:46.120Z,-0.64
2023-02-09T05:09:13.117Z,-0.57
2023-02-09T05:11:40.038Z,-0.56
2023-02-09T05:14:07.013Z,-0.56
2023-02-09T05:16:34.041Z,-0.54
2023-02-09T05:19:01.102Z,-0.43
2023-02-09T05:21:28.062Z,-0.46
2023-02-09T05:23:54.997Z,-0.42
2023-02-09T05:26:21.905Z,-0.29
2023-02-09T05:28:48.908Z,-0.30
2023-02-09T05:31:16.629Z,-0.28
2023-02-09T05:33:43.796Z,-0.27
2023-02-09T05:36:12.777Z,-0.24
2023-02-09T05:38:40.582Z,-0.27
2023-02-09T05:41:10.319Z,-0.24
2023-02-09T05:43:38.734Z,-0.21
2023-02-09T05:46:08.267Z,-0.23
2023-02-09T05:48:35.523Z,-0.28
2023-02-09T05:51:02.523Z,-0.23
2023-02-09T05:53:29.451Z,-0.23
2023-02-09T06:00:05.638Z,-0.19
2023-02-09T06:02:39.066Z,-0.17
2023-02-09T06:05:06.480Z,-0.13
2023-02-09T06:07:33.974Z,-0.11
2023-02-09T06:10:01.109Z,-0.12
2023-02-09T06:12:28.018Z,-0.10
2023-02-09T06:14:54.870Z,-0.13
2023-02-09T06:17:22.593Z,-0.07
2023-02-09T06:19:49.706Z,0.00
2023-02-09T06:22:16.676Z,-0.06
2023-02-09T06:24:43.675Z,-0.03
2023-02-09T06:27:13.301Z,0.01
2023-02-09T06:29:40.422Z,0.03
2023-02-09T06:32:07.380Z,0.03
2023-02-09T06:34:34.464Z,0.04
2023-02-09T06:37:01.447Z,0.01
2023-02-09T06:39:29.547Z,0.05
2023-02-09T06:41:56.594Z,0.01
2023-02-09T06:44:23.738Z,0.07
2023-02-09T06:46:50.777Z,0.03
2023-02-09T06:49:18.963Z,0.01
2023-02-09T06:51:46.259Z,0.05
2023-02-09T06:54:13.251Z,0.00
2023-02-09T06:56:40.228Z,0.03
2023-02-09T06:59:07.177Z,0.03
2023-02-09T07:01:34.164Z,0.02
2023-02-09T07:04:01.390Z,0.00
2023-02-09T07:06:28.412Z,-0.03
2023-02-09T07:08:55.317Z,0.02
2023-02-09T07:11:22.298Z,0.04
2023-02-09T07:13:49.243Z,0.04
2023-02-09T07:16:16.287Z,-0.01
2023-02-09T07:18:43.661Z,0.10
2023-02-09T07:21:20.102Z,0.11
2023-02-09T07:23:48.066Z,0.08
2023-02-09T07:26:17.689Z,0.10
2023-02-09T07:28:44.994Z,0.15
2023-02-09T07:31:15.123Z,0.14
2023-02-09T07:33:42.297Z,0.16
2023-02-09T07:36:13.191Z,0.21
2023-02-09T07:38:40.835Z,0.25
2023-02-09T07:41:14.423Z,0.26
2023-02-09T07:43:41.370Z,0.29
2023-02-09T07:46:08.691Z,0.31
2023-02-09T07:48:36.684Z,0.31
2023-02-09T07:51:04.532Z,0.34
2023-02-09T07:53:31.598Z,0.37
2023-02-09T07:55:58.724Z,0.38
2023-02-09T07:58:25.720Z,0.44
2023-02-09T08:00:52.650Z,0.45
2023-02-09T08:03:23.105Z,0.49
2023-02-09T08:06:02.640Z,0.54
2023-02-09T08:08:29.578Z,0.53
2023-02-09T08:10:59.154Z,0.61
2023-02-09T08:13:30.349Z,0.62
2023-02-09T08:16:02.903Z,0.67
2023-02-09T08:18:36.174Z,0.72
2023-02-09T08:21:06.734Z,0.77
2023-02-09T08:23:35.656Z,0.80
2023-02-09T08:26:09.872Z,0.87
2023-02-09T08:28:43.952Z,0.86
2023-02-09T08:31:18.474Z,0.91
2023-02-09T08:33:47.869Z,1.01
2023-02-09T08:36:17.455Z,1.10
2023-02-09T08:38:44.706Z,1.17
2023-02-09T08:41:14.729Z,1.23
2023-02-09T08:43:41.686Z,1.29
2023-02-09T08:46:13.624Z,1.43
2023-02-09T08:48:44.279Z,1.48
2023-02-09T08:51:13.972Z,1.50
2023-02-09T08:53:41.438Z,1.58
2023-02-09T08:56:08.796Z,1.67
2023-02-09T08:58:35.801Z,1.75
2023-02-09T09:01:03.410Z,1.80
2023-02-09T09:03:33.114Z,1.88
2023-02-09T09:06:05.430Z,1.93
2023-02-09T09:08:34.414Z,2.09
2023-02-09T09:11:01.697Z,2.13
2023-02-09T09:13:29.070Z,2.17
2023-02-09T09:15:56.201Z,2.19
2023-02-09T09:18:25.216Z,2.24
2023-02-09T09:20:53.237Z,2.28
2023-02-09T09:23:21.219Z,2.29
2023-02-09T09:25:48.765Z,2.25
2023-02-09T09:28:16.114Z,2.34
2023-02-09T09:30:43.282Z,2.34
2023-02-09T09:33:10.257Z,2.45
2023-02-09T09:35:37.341Z,2.58
2023-02-09T09:38:04.741Z,2.72
2023-02-09T09:40:37.710Z,2.77
2023-02-09T09:43:31.750Z,2.76
2023-02-09T09:45:59.504Z,2.78
2023-02-09T09:48:42.801Z,2.92
2023-02-09T09:51:20.802Z,3.09
2023-02-09T09:53:51.614Z,3.13
2023-02-09T09:56:21.175Z,3.32
2023-02-09T09:58:50.216Z,3.40
2023-02-09T10:01:21.144Z,3.53
2023-02-09T10:03:48.196Z,3.59
2023-02-09T10:06:19.988Z,3.61
2023-02-09T10:09:04.365Z,3.88
2023-02-09T10:11:46.178Z,3.90
2023-02-09T10:14:13.176Z,4.07
2023-02-09T10:16:41.025Z,4.15
2023-02-09T10:19:26.303Z,4.11
2023-02-09T10:21:54.607Z,4.06
2023-02-09T10:24:29.214Z,4.08
2023-02-09T10:27:21.920Z,4.35
2023-02-09T10:29:48.878Z,4.65
2023-02-09T10:32:21.608Z,4.69
2023-02-09T10:34:53.368Z,4.93
2023-02-09T10:37:34.586Z,4.98
2023-02-09T10:40:28.994Z,5.04
2023-02-09T10:43:03.447Z,5.33
2023-02-09T10:45:42.049Z,5.50
2023-02-09T10:48:19.219Z,5.67
2023-02-09T10:51:33.701Z,5.76
2023-02-09T10:54:07.454Z,5.63
2023-02-09T10:56:46.417Z,5.40
2023-02-09T10:59:22.104Z,5.29
2023-02-09T11:02:34.309Z,5.24
2023-02-09T11:05:01.382Z,5.22
2023-02-09T11:07:35.112Z,5.32
2023-02-09T11:10:05.209Z,5.46
2023-02-09T11:12:32.223Z,5.48
2023-02-09T11:14:59.194Z,5.57
2023-02-09T11:17:37.308Z,5.71
2023-02-09T11:20:20.579Z,5.74
2023-02-09T11:23:03.055Z,5.65
2023-02-09T11:26:01.014Z,5.74
2023-02-09T11:29:27.500Z,5.75
2023-02-09T11:32:11.252Z,5.88
2023-02-09T11:35:01.346Z,5.97
2023-02-09T11:38:06.594Z,6.18
2023-02-09T11:40:49.248Z,6.24
2023-02-09T11:43:35.930Z,6.16
2023-02-09T11:46:15.645Z,5.98
2023-02-09T11:48:51.418Z,6.04
2023-02-09T11:51:25.104Z,5.95
2023-02-09T11:54:09.203Z,5.94
2023-02-09T11:56:42.220Z,5.93
2023-02-09T11:59:23.485Z,5.93
2023-02-09T12:02:25.151Z,5.95
2023-02-09T12:05:02.406Z,6.15
2023-02-09T12:08:04.823Z,6.38
2023-02-09T12:10:52.799Z,6.42
2023-02-09T12:13:32.139Z,6.23
2023-02-09T12:16:07.741Z,6.16
2023-02-09T12:18:36.131Z,6.02
2023-02-09T12:21:06.016Z,6.12
2023-02-09T12:23:38.279Z,6.28
2023-02-09T12:26:17.014Z,6.27
2023-02-09T12:29:25.000Z,6.43
2023-02-09T12:32:03.969Z,6.63
2023-02-09T12:34:50.657Z,6.47
2023-02-09T12:37:28.919Z,6.43
2023-02-09T12:40:11.186Z,6.49
2023-02-09T12:42:53.349Z,6.53
2023-02-09T12:45:34.797Z,6.45
2023-02-09T12:48:15.124Z,6.59
2023-02-09T12:50:54.033Z,6.67
2023-02-09T12:53:24.179Z,6.69
2023-02-09T12:56:09.364Z,6.41
2023-02-09T12:58:55.994Z,6.31
2023-02-09T13:02:07.815Z,6.35
2023-02-09T13:04:49.753Z,6.37
2023-02-09T13:07:38.053Z,6.43
2023-02-09T13:10:38.259Z,6.51
2023-02-09T13:13:28.443Z,6.31
2023-02-09T13:16:01.160Z,6.31
2023-02-09T13:18:51.578Z,6.19
2023-02-09T13:22:03.689Z,6.19
2023-02-09T13:24:39.509Z,6.28
2023-02-09T13:27:24.623Z,6.23
2023-02-09T13:29:58.262Z,6.17
2023-02-09T13:32:52.500Z,6.17
2023-02-09T13:35:31.326Z,6.17
2023-02-09T13:38:00.416Z,6.08
2023-02-09T13:40:33.528Z,6.04
2023-02-09T13:43:12.586Z,5.95
2023-02-09T13:45:51.910Z,5.86
2023-02-09T13:48:35.034Z,5.87
2023-02-09T13:51:14.863Z,5.90
2023-02-09T13:53:42.120Z,5.76
2023-02-09T13:56:12.064Z,5.77
2023-02-09T13:58:40.397Z,5.75
2023-02-09T14:01:14.993Z,5.77
2023-02-09T14:04:02.888Z,5.81
2023-02-09T14:06:44.504Z,5.73
2023-02-09T14:09:23.770Z,5.78
2023-02-09T14:11:59.713Z,5.81
2023-02-09T14:14:52.355Z,5.86
2023-02-09T14:17:34.787Z,5.90
2023-02-09T14:20:03.157Z,5.94
2023-02-09T14:22:41.657Z,5.93
2023-02-09T14:25:14.564Z,5.93
2023-02-09T14:27:47.418Z,5.87
2023-02-09T14:30:24.600Z,5.87
2023-02-09T14:32:57.185Z,5.88
2023-02-09T14:35:33.043Z,5.90
2023-02-09T14:38:02.776Z,5.87
2023-02-09T14:40:34.736Z,5.80
2023-02-09T14:43:10.787Z,5.84
2023-02-09T14:45:57.167Z,5.78
2023-02-09T14:48:26.909Z,5.74
2023-02-09T14:50:57.282Z,5.68
2023-02-09T14:53:28.616Z,5.59
2023-02-09T14:55:57.164Z,5.57
2023-02-09T14:58:28.183Z,5.51
2023-02-09T15:01:01.197Z,5.52
2023-02-09T15:03:28.914Z,5.57
2023-02-09T15:06:02.926Z,5.62
2023-02-09T15:08:34.577Z,5.53
2023-02-09T15:11:25.137Z,5.51
2023-02-09T15:13:58.659Z,5.47
2023-02-09T15:16:25.639Z,5.45
2023-02-09T15:18:52.963Z,5.40
2023-02-09T15:21:19.878Z,5.31
2023-02-09T15:23:46.821Z,5.29
2023-02-09T15:26:18.366Z,5.26
2023-02-09T15:28:45.352Z,5.18
2023-02-09T15:31:15.948Z,5.15
2023-02-09T15:33:43.531Z,5.17
2023-02-09T15:36:21.027Z,5.18
2023-02-09T15:38:48.178Z,5.18
2023-02-09T15:41:35.967Z,5.07
2023-02-09T15:44:35.946Z,5.08
2023-02-09T15:47:22.061Z,5.06
2023-02-09T15:49:49.215Z,5.01
2023-02-09T15:52:17.596Z,5.01
2023-02-09T15:54:45.166Z,4.97
2023-02-09T15:57:14.023Z,4.97
2023-02-09T15:59:42.468Z,4.88
2023-02-09T16:02:15.533Z,4.97
2023-02-09T16:04:43.045Z,4.95
2023-02-09T16:07:14.657Z,4.83
2023-02-09T16:09:43.457Z,4.86
2023-02-09T16:12:12.083Z,4.82
2023-02-09T16:14:39.225Z,4.72
2023-02-09T16:17:07.709Z,4.70
2023-02-09T16:19:34.796Z,4.64
2023-02-09T16:22:06.729Z,4.65
2023-02-09T16:24:45.331Z,4.63
2023-02-09T16:27:23.147Z,4.63
2023-02-09T16:29:50.146Z,4.71
2023-02-09T16:32:21.963Z,4.74
2023-02-09T16:34:50.339Z,4.73
2023-02-09T16:37:29.008Z,4.74
2023-02-09T16:39:58.151Z,4.75
2023-02-09T16:42:25.527Z,4.77
2023-02-09T16:44:53.123Z,4.77
2023-02-09T16:47:26.869Z,4.72
2023-02-09T16:50:01.422Z,4.72
2023-02-09T16:52:30.313Z,4.60
2023-02-09T16:55:00.912Z,4.47
2023-02-09T16:57:28.911Z,4.42
2023-02-09T16:59:56.086Z,4.34
2023-02-09T17:02:37.102Z,4.23
2023-02-09T17:05:18.260Z,4.23
2023-02-09T17:07:54.584Z,4.18
2023-02-09T17:10:26.109Z,4.14
2023-02-09T17:12:53.865Z,4.17
2023-02-09T17:15:30.115Z,4.19
2023-02-09T17:18:06.319Z,4.18
2023-02-09T17:20:42.140Z,4.17
2023-02-09T17:23:23.567Z,4.14
2023-02-09T17:25:51.594Z,4.25
2023-02-09T17:28:19.349Z,4.18
2023-02-09T17:30:48.044Z,4.23
2023-02-09T17:33:32.269Z,4.22
2023-02-09T17:36:25.293Z,4.28
2023-02-09T17:38:48.417Z,4.22
2023-02-09T17:41:20.419Z,4.32
2023-02-09T17:43:49.434Z,4.24
2023-02-09T17:46:18.994Z,4.31
2023-02-09T17:48:47.200Z,4.32
2023-02-09T17:51:28.690Z,4.35
2023-02-09T17:53:55.791Z,4.34
2023-02-09T17:56:22.776Z,4.32
2023-02-09T17:58:49.721Z,4.38
2023-02-09T18:01:33.215Z,4.34
2023-02-09T18:04:02.059Z,4.39
2023-02-09T18:06:36.736Z,4.36
2023-02-09T18:09:11.018Z,4.39
2023-02-09T18:12:06.642Z,4.39
2023-02-09T18:14:34.363Z,4.31
2023-02-09T18:17:01.563Z,4.39
2023-02-09T18:19:29.074Z,4.35
2023-02-09T18:22:01.933Z,4.39
2023-02-09T18:24:32.914Z,4.39
2023-02-09T18:27:01.039Z,4.35
2023-02-09T18:29:30.765Z,4.35
2023-02-09T18:31:59.761Z,4.31
2023-02-09T18:34:27.447Z,4.30
2023-02-09T18:36:54.718Z,4.33
2023-02-09T18:39:21.823Z,4.34
2023-02-09T18:41:54.090Z,4.37
2023-02-09T18:44:29.019Z,4.37
2023-02-09T18:46:57.675Z,4.40
2023-02-09T18:49:24.652Z,4.38
2023-02-09T18:51:52.192Z,4.39
2023-02-09T18:54:19.164Z,4.39
2023-02-09T18:56:46.110Z,4.40
2023-02-09T18:59:13.920Z,4.35
2023-02-09T19:01:41.116Z,4.38
2023-02-09T19:04:08.120Z,4.34
2023-02-09T19:06:35.484Z,4.33
2023-02-09T19:09:02.437Z,4.37
2023-02-09T19:11:29.422Z,4.24
2023-02-09T19:14:14.689Z,4.23
2023-02-09T19:16:41.657Z,4.20
2023-02-09T19:19:09.387Z,4.16
2023-02-09T19:21:36.494Z,4.14
2023-02-09T19:24:05.571Z,4.12
2023-02-09T19:26:32.468Z,4.05
2023-02-09T19:28:59.401Z,4.05
2023-02-09T19:31:26.370Z,4.09
2023-02-09T19:33:57.656Z,4.12
2023-02-09T19:36:27.587Z,4.12
2023-02-09T19:38:55.910Z,4.10
2023-02-09T19:41:23.460Z,4.11
2023-02-09T19:43:55.457Z,4.09
2023-02-09T19:46:22.725Z,3.96
2023-02-09T19:48:49.732Z,3.96
2023-02-09T19:51:16.726Z,3.92
2023-02-09T19:53:43.721Z,3.92
2023-02-09T19:56:17.270Z,3.88
2023-02-09T19:58:44.903Z,3.87
2023-02-09T20:01:12.708Z,3.91
2023-02-09T20:03:40.018Z,3.89
2023-02-09T20:06:13.765Z,3.90
2023-02-09T20:08:41.247Z,3.89
2023-02-09T20:11:11.470Z,3.91
2023-02-09T20:13:39.463Z,3.90
2023-02-09T20:16:14.411Z,3.89
2023-02-09T20:18:41.305Z,3.88
2023-02-09T20:21:09.329Z,3.85
2023-02-09T20:23:37.437Z,3.88
2023-02-09T20:26:25.116Z,3.91
2023-02-09T20:28:53.962Z,3.90
2023-02-09T20:31:23.908Z,3.91
2023-02-09T20:33:51.156Z,3.85
2023-02-09T20:36:18.643Z,3.87
2023-02-09T20:38:46.431Z,3.90
2023-02-09T20:41:17.230Z,3.89
2023-02-09T20:44:03.164Z,3.90
2023-02-09T20:46:44.058Z,3.92
2023-02-09T20:49:13.798Z,3.91
2023-02-09T20:51:40.844Z,3.85
2023-02-09T20:54:07.738Z,3.87
2023-02-09T20:56:35.163Z,3.83
2023-02-09T20:59:04.591Z,3.85
2023-02-09T21:01:31.635Z,3.83
2023-02-09T21:04:00.226Z,3.85
2023-02-09T21:06:27.590Z,3.82
2023-02-09T21:08:54.751Z,3.80
2023-02-09T21:11:21.807Z,3.86
2023-02-09T21:13:48.736Z,3.82
2023-02-09T21:16:16.380Z,3.84
2023-02-09T21:18:45.678Z,3.90
2023-02-09T21:21:17.070Z,3.87
2023-02-09T21:23:45.662Z,3.93
2023-02-09T21:26:17.029Z,3.94
2023-02-09T21:28:45.306Z,3.98
2023-02-09T21:31:16.799Z,3.89
2023-02-09T21:33:43.751Z,3.91
2023-02-09T21:36:11.016Z,3.90
2023-02-09T21:38:41.466Z,3.90
2023-02-09T21:41:33.789Z,3.90
2023-02-09T21:44:01.139Z,3.91
2023-02-09T21:46:28.192Z,3.88
2023-02-09T21:48:55.715Z,3.85
2023-02-09T21:51:23.083Z,3.92
2023-02-09T21:53:50.173Z,3.92
2023-02-09T21:56:17.206Z,3.96
2023-02-09T21:58:44.397Z,3.99
2023-02-09T22:01:11.608Z,3.93
2023-02-09T22:03:39.806Z,3.94
2023-02-09T22:06:07.182Z,3.92
2023-02-09T22:08:34.397Z,3.88
2023-02-09T22:11:03.234Z,3.92
2023-02-09T22:13:30.919Z,3.92
2023-02-09T22:15:57.919Z,3.93
2023-02-09T22:18:25.619Z,3.92
2023-02-09T22:20:52.585Z,3.92
2023-02-09T22:23:20.081Z,3.87
2023-02-09T22:25:47.323Z,3.90
2023-02-09T22:28:14.285Z,3.91
2023-02-09T22:30:41.352Z,3.91
2023-02-09T22:33:08.244Z,3.96
2023-02-09T22:35:40.342Z,3.97
2023-02-09T22:38:07.293Z,3.97
2023-02-09T22:40:34.208Z,3.92
2023-02-09T22:43:01.495Z,3.92
2023-02-09T22:45:28.470Z,3.98
2023-02-09T22:47:55.413Z,3.98
2023-02-09T22:50:22.707Z,3.99
2023-02-09T22:52:49.588Z,3.98
2023-02-09T22:55:16.571Z,4.02
2023-02-09T22:57:43.594Z,4.02
2023-02-09T23:00:13.482Z,4.03
2023-02-09T23:02:40.431Z,4.02
2023-02-09T23:05:07.579Z,3.97
2023-02-09T23:07:34.486Z,4.04
2023-02-09T23:10:01.406Z,4.03
2023-02-09T23:12:28.317Z,4.00
2023-02-09T23:14:55.369Z,4.00
2023-02-09T23:17:22.334Z,3.96
2023-02-09T23:19:49.453Z,3.95
2023-02-09T23:22:16.501Z,3.99
2023-02-09T23:24:43.472Z,3.98
2023-02-09T23:27:10.442Z,3.98
2023-02-09T23:29:37.351Z,3.96
2023-02-09T23:32:05.129Z,3.97
2023-02-09T23:34:33.505Z,3.98
2023-02-09T23:37:08.666Z,3.93
2023-02-09T23:39:45.596Z,3.99
2023-02-09T23:42:12.552Z,3.99
2023-02-09T23:44:39.523Z,4.05
2023-02-09T23:47:07.258Z,4.06
2023-02-09T23:49:34.267Z,4.07
2023-02-09T23:52:01.383Z,4.13
2023-02-09T23:54:28.401Z,4.15
2023-02-09T23:56:55.360Z,4.17
2023-02-09T23:59:22.747Z,4.12
